Time,TemperatureF,DewpointF,PressureIn,WindDirection,WindDirectionDegrees,WindSpeedMPH,WindSpeedGustMPH,Humidity,HourlyPrecipIn,Conditions,Clouds,dailyrainin,SoftwareType,DateUTC
2013-04-13 00:00:00,42.4,35.0,30.05,SW,221,0.0,3.0,75,0.00,,,0.00,weatherlink.com 1.10,2013-04-13 05:00:00,
2013-04-13 00:15:00,41.4,35.0,30.05,SSW,211,0.0,1.0,78,0.00,,,0.00,weatherlink.com 1.10,2013-04-13 05:15:00,
2013-04-13 00:30:00,40.2,35.0,30.06,SSW,211,0.0,1.0,81,0.00,,,0.00,weatherlink.com 1.10,2013-04-13 05:30:00,
2013-04-13 00:45:00,39.0,35.0,30.06,SSW,211,0.0,0.0,85,0.00,,,0.00,weatherlink.com 1.10,2013-04-13 05:45:00,
2013-04-13 01:00:00,37.9,34.0,30.07,SSW,211,0.0,0.0,87,0.00,,,0.00,weatherlink.com 1.10,2013-04-13 06:00:00,
2013-04-13 01:15:00,37.1,34.0,30.07,SSW,211,0.0,0.0,89,0.00,,,0.00,weatherlink.com 1.10,2013-04-13 06:15:00,
2013-04-13 01:30:00,36.4,34.0,30.06,SSW,211,0.0,0.0,90,0.00,,,0.00,weatherlink.com 1.10,2013-04-13 06:30:00,
2013-04-13 01:45:00,35.7,33.0,30.06,SSW,211,0.0,0.0,90,0.00,,,0.00,weatherlink.com 1.10,2013-04-13 06:45:00,
2013-04-13 02:00:00,35.2,33.0,30.06,SSW,211,0.0,0.0,91,0.00,,,0.00,weatherlink.com 1.10,2013-04-13 07:00:00,
2013-04-13 02:15:00,34.7,33.0,30.06,SSW,211,0.0,0.0,92,0.00,,,0.00,weatherlink.com 1.10,2013-04-13 07:15:00,
2013-04-13 02:30:00,34.3,33.0,30.06,SSW,211,0.0,0.0,93,0.00,,,0.00,weatherlink.com 1.10,2013-04-13 07:30:00,
2013-04-13 02:45:00,34.0,32.0,30.05,SSW,211,0.0,0.0,93,0.00,,,0.00,weatherlink.com 1.10,2013-04-13 07:45:00,
2013-04-13 03:01:00,33.7,32.0,30.06,SSW,211,0.0,0.0,93,0.00,,,0.00,weatherlink.com 1.10,2013-04-13 08:01:00,
2013-04-13 03:15:00,33.2,31.0,30.05,SSW,211,0.0,0.0,93,0.00,,,0.00,weatherlink.com 1.10,2013-04-13 08:15:00,
2013-04-13 03:30:00,33.1,32.0,30.06,SSW,211,0.0,0.0,94,0.00,,,0.00,weatherlink.com 1.10,2013-04-13 08:30:00,
2013-04-13 04:01:00,32.5,31.0,30.05,SSW,211,0.0,0.0,94,0.00,,,0.00,weatherlink.com 1.10,2013-04-13 09:01:00,
2013-04-13 04:16:00,32.2,31.0,30.05,SSW,211,0.0,0.0,94,0.00,,,0.00,weatherlink.com 1.10,2013-04-13 09:16:00,
2013-04-13 04:31:00,32.0,31.0,30.05,SSW,211,0.0,0.0,95,0.00,,,0.00,weatherlink.com 1.10,2013-04-13 09:31:00,
2013-04-13 04:46:00,31.8,31.0,30.06,SSW,211,0.0,0.0,95,0.00,,,0.00,weatherlink.com 1.10,2013-04-13 09:46:00,
2013-04-13 05:01:00,31.6,30.0,30.06,SSW,211,0.0,0.0,95,0.00,,,0.00,weatherlink.com 1.10,2013-04-13 10:01:00,
2013-04-13 05:16:00,31.5,30.0,30.06,SSW,211,0.0,0.0,95,0.00,,,0.00,weatherlink.com 1.10,2013-04-13 10:16:00,
2013-04-13 05:31:00,31.4,30.0,30.06,SSW,211,0.0,0.0,95,0.00,,,0.00,weatherlink.com 1.10,2013-04-13 10:31:00,
2013-04-13 05:46:00,31.2,30.0,30.06,SSW,211,0.0,0.0,95,0.00,,,0.00,weatherlink.com 1.10,2013-04-13 10:46:00,
2013-04-13 06:01:00,31.1,30.0,30.06,SSW,211,0.0,0.0,95,0.00,,,0.00,weatherlink.com 1.10,2013-04-13 11:01:00,
2013-04-13 06:16:00,31.2,30.0,30.06,SSW,211,0.0,0.0,96,0.00,,,0.00,weatherlink.com 1.10,2013-04-13 11:16:00,
2013-04-13 06:31:00,31.2,30.0,30.07,SSW,211,0.0,0.0,96,0.00,,,0.00,weatherlink.com 1.10,2013-04-13 11:31:00,
2013-04-13 07:01:00,31.6,31.0,30.07,SSW,211,0.0,0.0,96,0.00,,,0.00,weatherlink.com 1.10,2013-04-13 12:01:00,
2013-04-13 07:16:00,32.3,31.0,30.08,SSW,211,0.0,0.0,96,0.00,,,0.00,weatherlink.com 1.10,2013-04-13 12:16:00,
2013-04-13 08:16:00,45.3,38.0,30.10,ENE,77,4.0,7.0,76,0.00,,,0.00,weatherlink.com 1.10,2013-04-13 13:16:00,
2013-04-13 08:31:00,47.7,38.0,30.10,NE,55,1.0,7.0,68,0.00,,,0.00,weatherlink.com 1.10,2013-04-13 13:31:00,
2013-04-13 08:46:00,49.3,38.0,30.10,East,82,2.0,5.0,66,0.00,,,0.00,weatherlink.com 1.10,2013-04-13 13:46:00,
2013-04-13 09:01:00,50.2,37.0,30.10,NE,47,1.0,5.0,62,0.00,,,0.00,weatherlink.com 1.10,2013-04-13 14:01:00,
2013-04-13 09:16:00,51.5,37.0,30.10,ENE,65,2.0,6.0,59,0.00,,,0.00,weatherlink.com 1.10,2013-04-13 14:16:00,
2013-04-13 09:31:00,52.3,38.0,30.11,ENE,63,0.0,4.0,58,0.00,,,0.00,weatherlink.com 1.10,2013-04-13 14:31:00,
2013-04-13 10:17:00,56.2,41.0,30.11,SSW,194,1.0,7.0,57,0.00,,,0.00,weatherlink.com 1.10,2013-04-13 15:17:00,
2013-04-13 10:32:00,56.6,42.0,30.11,South,173,0.0,6.0,59,0.00,,,0.00,weatherlink.com 1.10,2013-04-13 15:32:00,
2013-04-13 10:47:00,57.7,43.0,30.11,SE,142,7.0,10.0,58,0.00,,,0.00,weatherlink.com 1.10,2013-04-13 15:47:00,
2013-04-13 11:02:00,58.1,42.0,30.11,SSW,204,4.0,7.0,55,0.00,,,0.00,weatherlink.com 1.10,2013-04-13 16:02:00,
2013-04-13 11:32:00,58.9,44.0,30.10,SSE,147,7.0,9.0,58,0.00,,,0.00,weatherlink.com 1.10,2013-04-13 16:32:00,
2013-04-13 11:47:00,59.1,41.0,30.10,NE,44,0.0,5.0,51,0.00,,,0.00,weatherlink.com 1.10,2013-04-13 16:47:00,
2013-04-13 12:02:00,59.7,39.0,30.09,East,100,1.0,8.0,46,0.00,,,0.00,weatherlink.com 1.10,2013-04-13 17:02:00,
2013-04-13 12:32:00,59.9,42.0,30.08,SSE,167,2.0,4.0,52,0.00,,,0.00,weatherlink.com 1.10,2013-04-13 17:32:00,
2013-04-13 13:02:00,61.6,40.0,30.07,West,280,1.0,6.0,46,0.00,,,0.00,weatherlink.com 1.10,2013-04-13 18:02:00,
2013-04-13 13:17:00,61.9,42.0,30.06,East,94,3.0,7.0,49,0.00,,,0.00,weatherlink.com 1.10,2013-04-13 18:17:00,
2013-04-13 13:32:00,62.5,43.0,30.05,SE,140,3.0,7.0,50,0.00,,,0.00,weatherlink.com 1.10,2013-04-13 18:32:00,
2013-04-13 13:48:00,63.8,44.0,30.05,SSE,164,3.0,8.0,48,0.00,,,0.00,weatherlink.com 1.10,2013-04-13 18:48:00,
2013-04-13 14:02:00,64.2,43.0,30.05,SW,221,0.0,6.0,47,0.00,,,0.00,weatherlink.com 1.10,2013-04-13 19:02:00,
2013-04-13 14:17:00,64.4,42.0,30.04,WSW,258,0.0,4.0,45,0.00,,,0.00,weatherlink.com 1.10,2013-04-13 19:17:00,
2013-04-13 14:32:00,64.8,42.0,30.05,ESE,123,0.0,7.0,44,0.00,,,0.00,weatherlink.com 1.10,2013-04-13 19:32:00,
2013-04-13 14:47:00,64.3,42.0,30.04,NE,50,2.0,4.0,44,0.00,,,0.00,weatherlink.com 1.10,2013-04-13 19:47:00,
2013-04-13 15:02:00,64.7,43.0,30.03,NW,323,2.0,4.0,45,0.00,,,0.00,weatherlink.com 1.10,2013-04-13 20:02:00,
2013-04-13 15:17:00,63.3,41.0,30.02,NNW,344,1.0,6.0,44,0.00,,,0.00,weatherlink.com 1.10,2013-04-13 20:17:00,
2013-04-13 15:32:00,64.9,42.0,30.02,SSE,151,3.0,5.0,43,0.00,,,0.00,weatherlink.com 1.10,2013-04-13 20:32:00,
2013-04-13 15:47:00,66.0,44.0,30.00,SE,130,2.0,8.0,45,0.00,,,0.00,weatherlink.com 1.10,2013-04-13 20:47:00,
2013-04-13 16:02:00,66.2,43.0,30.00,East,88,1.0,4.0,43,0.00,,,0.00,weatherlink.com 1.10,2013-04-13 21:02:00,
2013-04-13 16:17:00,66.1,42.0,29.99,SSE,165,1.0,4.0,42,0.00,,,0.00,weatherlink.com 1.10,2013-04-13 21:17:00,
2013-04-13 16:32:00,65.6,42.0,30.00,South,173,1.0,3.0,43,0.00,,,0.00,weatherlink.com 1.10,2013-04-13 21:32:00,
2013-04-13 16:47:00,65.7,44.0,30.00,SSW,194,1.0,3.0,45,0.00,,,0.00,weatherlink.com 1.10,2013-04-13 21:47:00,
2013-04-13 17:02:00,65.9,41.0,29.99,NNE,30,0.0,3.0,41,0.00,,,0.00,weatherlink.com 1.10,2013-04-13 22:02:00,
2013-04-13 17:17:00,64.6,43.0,29.99,ESE,122,1.0,4.0,46,0.00,,,0.00,weatherlink.com 1.10,2013-04-13 22:17:00,
2013-04-13 17:32:00,64.4,44.0,29.99,SSE,159,3.0,4.0,47,0.00,,,0.00,weatherlink.com 1.10,2013-04-13 22:32:00,
2013-04-13 17:47:00,63.9,42.0,29.98,North,11,3.0,4.0,45,0.00,,,0.00,weatherlink.com 1.10,2013-04-13 22:47:00,
2013-04-13 18:02:00,63.6,41.0,29.98,NW,315,1.0,3.0,43,0.00,,,0.00,weatherlink.com 1.10,2013-04-13 23:02:00,
2013-04-13 18:17:00,63.0,42.0,29.98,NNW,335,0.0,4.0,47,0.00,,,0.00,weatherlink.com 1.10,2013-04-13 23:17:00,
2013-04-13 18:32:00,62.6,41.0,29.97,NW,325,0.0,2.0,46,0.00,,,0.00,weatherlink.com 1.10,2013-04-13 23:32:00,
2013-04-13 18:47:00,62.2,43.0,29.97,NNW,348,0.0,1.0,50,0.00,,,0.00,weatherlink.com 1.10,2013-04-13 23:47:00,
2013-04-13 19:03:00,60.6,44.0,29.97,NNW,348,0.0,0.0,55,0.00,,,0.00,weatherlink.com 1.10,2013-04-14 00:03:00,
2013-04-13 19:18:00,59.4,44.0,29.96,NNW,348,0.0,0.0,58,0.00,,,0.00,weatherlink.com 1.10,2013-04-14 00:18:00,
2013-04-13 19:33:00,57.8,48.0,29.96,NNW,348,0.0,0.0,71,0.00,,,0.00,weatherlink.com 1.10,2013-04-14 00:33:00,
2013-04-13 19:48:00,56.0,49.0,29.96,NNW,348,0.0,0.0,76,0.00,,,0.00,weatherlink.com 1.10,2013-04-14 00:48:00,
2013-04-13 20:03:00,53.9,48.0,29.96,NNW,348,0.0,0.0,79,0.00,,,0.00,weatherlink.com 1.10,2013-04-14 01:03:00,
2013-04-13 20:18:00,52.1,46.0,29.96,NNW,348,0.0,0.0,81,0.00,,,0.00,weatherlink.com 1.10,2013-04-14 01:18:00,
2013-04-13 20:33:00,50.6,46.0,29.96,NNW,348,0.0,0.0,84,0.00,,,0.00,weatherlink.com 1.10,2013-04-14 01:33:00,
2013-04-13 20:48:00,49.4,45.0,29.96,NNW,348,0.0,0.0,86,0.00,,,0.00,weatherlink.com 1.10,2013-04-14 01:48:00,
2013-04-13 21:03:00,48.7,45.0,29.96,NNW,348,0.0,0.0,87,0.00,,,0.00,weatherlink.com 1.10,2013-04-14 02:03:00,
2013-04-13 21:18:00,47.9,45.0,29.97,NNW,348,0.0,0.0,88,0.00,,,0.00,weatherlink.com 1.10,2013-04-14 02:18:00,
2013-04-13 21:33:00,47.4,44.0,29.97,NNW,348,0.0,0.0,88,0.00,,,0.00,weatherlink.com 1.10,2013-04-14 02:33:00,
2013-04-13 21:48:00,46.8,44.0,29.97,NNW,348,0.0,0.0,89,0.00,,,0.00,weatherlink.com 1.10,2013-04-14 02:48:00,
2013-04-13 22:03:00,46.3,43.0,29.97,NNW,348,0.0,0.0,89,0.00,,,0.00,weatherlink.com 1.10,2013-04-14 03:03:00,
2013-04-13 22:18:00,45.8,43.0,29.97,NNW,348,0.0,0.0,90,0.00,,,0.00,weatherlink.com 1.10,2013-04-14 03:18:00,
2013-04-13 22:33:00,45.4,43.0,29.97,NNW,348,0.0,0.0,91,0.00,,,0.00,weatherlink.com 1.10,2013-04-14 03:33:00,
2013-04-13 22:48:00,44.9,43.0,29.97,NNW,348,0.0,0.0,91,0.00,,,0.00,weatherlink.com 1.10,2013-04-14 03:48:00,
2013-04-13 23:03:00,44.4,42.0,29.97,NNW,348,0.0,0.0,92,0.00,,,0.00,weatherlink.com 1.10,2013-04-14 04:03:00,
2013-04-13 23:18:00,44.0,42.0,29.96,NNW,348,0.0,0.0,92,0.00,,,0.00,weatherlink.com 1.10,2013-04-14 04:18:00,
2013-04-13 23:33:00,43.8,42.0,29.96,NNW,348,0.0,0.0,93,0.00,,,0.00,weatherlink.com 1.10,2013-04-14 04:33:00,
2013-04-13 23:48:00,43.5,42.0,29.96,NNW,348,0.0,0.0,93,0.00,,,0.00,weatherlink.com 1.10,2013-04-14 04:48:00,